createdAt,value
2018-12-29T00:02:47.539Z,102008.95
2018-12-29T00:07:43.534Z,102008.12
2018-12-29T00:12:39.529Z,102018.56
2018-12-29T00:17:35.423Z,102009.33
2018-12-29T00:22:31.323Z,102002.72
2018-12-29T00:27:27.214Z,102004.02
2018-12-29T00:32:23.113Z,101996.58
2018-12-29T00:38:00.749Z,101997.76
2018-12-29T00:42:56.650Z,102000.19
2018-12-29T00:47:52.660Z,102004.95
2018-12-29T00:52:48.574Z,101996.36
2018-12-29T00:57:44.476Z,102001.79
2018-12-29T01:02:40.439Z,101997.17
2018-12-29T01:07:36.444Z,101995.55
2018-12-29T01:12:32.361Z,101992.59
2018-12-29T01:17:28.264Z,102003.30
2018-12-29T01:22:24.168Z,102025.41
2018-12-29T01:27:20.132Z,102015.21
2018-12-29T01:32:16.063Z,102030.74
2018-12-29T01:37:11.959Z,102028.38
2018-12-29T01:42:07.869Z,102039.40
2018-12-29T01:47:03.822Z,102028.08
2018-12-29T01:51:59.723Z,102022.17
2018-12-29T01:56:55.598Z,102018.53
2018-12-29T02:01:52.407Z,102024.29
2018-12-29T02:06:48.276Z,102028.27
2018-12-29T02:11:44.211Z,102028.22
2018-12-29T02:16:40.106Z,102034.70
2018-12-29T02:21:36.007Z,102029.94
2018-12-29T02:31:40.468Z,102032.86
2018-12-29T02:36:36.357Z,102031.55
2018-12-29T02:41:32.261Z,102026.97
2018-12-29T02:46:28.179Z,102022.07
2018-12-29T02:51:24.087Z,102025.38
2018-12-29T02:56:19.982Z,102025.16
2018-12-29T03:01:36.319Z,102012.59
2018-12-29T03:06:32.267Z,102012.16
2018-12-29T03:11:28.167Z,102011.30
2018-12-29T03:16:24.066Z,102008.70
2018-12-29T03:21:19.962Z,102009.07
2018-12-29T03:26:15.860Z,102001.62
2018-12-29T03:31:15.137Z,101997.59
2018-12-29T03:36:11.065Z,101990.11
2018-12-29T03:41:06.968Z,101999.85
2018-12-29T03:46:02.895Z,101994.19
2018-12-29T03:50:58.786Z,101983.03
2018-12-29T03:55:54.740Z,101991.54
2018-12-29T04:01:12.462Z,101986.13
2018-12-29T04:06:08.470Z,101989.19
2018-12-29T04:11:04.478Z,101984.22
2018-12-29T04:16:00.378Z,101987.77
2018-12-29T04:20:56.279Z,101983.14
2018-12-29T04:25:52.289Z,101974.50
2018-12-29T04:31:09.116Z,101976.30
2018-12-29T04:36:05.113Z,101971.78
2018-12-29T04:41:01.011Z,101971.31
2018-12-29T04:45:57.039Z,101961.69
2018-12-29T04:50:52.934Z,101966.65
2018-12-29T04:55:48.831Z,101958.50
2018-12-29T05:00:45.313Z,101957.27
2018-12-29T05:05:41.207Z,101962.69
2018-12-29T05:10:37.104Z,101958.42
2018-12-29T05:15:33.006Z,101967.29
2018-12-29T05:20:28.902Z,101963.23
2018-12-29T05:25:24.797Z,101962.80
2018-12-29T05:30:20.698Z,101963.64
2018-12-29T05:35:16.591Z,101967.82
2018-12-29T05:40:12.499Z,101982.14
2018-12-29T05:45:08.391Z,101982.03
2018-12-29T05:50:04.385Z,101981.05
2018-12-29T05:55:00.290Z,101980.61
2018-12-29T05:59:56.181Z,101974.89
2018-12-29T06:04:52.055Z,101990.69
2018-12-29T06:09:47.946Z,102004.64
2018-12-29T06:14:43.851Z,102003.81
2018-12-29T06:19:39.742Z,102002.62
2018-12-29T06:24:35.662Z,102006.85
2018-12-29T06:29:31.542Z,102004.09
2018-12-29T06:34:27.448Z,102009.20
2018-12-29T06:39:23.342Z,101998.05
2018-12-29T06:44:19.240Z,102000.65
2018-12-29T06:49:15.261Z,102002.11
2018-12-29T06:54:11.174Z,102007.90
2018-12-29T06:59:07.067Z,102018.95
2018-12-29T07:04:02.971Z,102012.98
2018-12-29T07:08:58.874Z,102011.09
2018-12-29T07:13:54.772Z,102006.02
2018-12-29T07:18:50.830Z,101998.82
2018-12-29T07:23:46.760Z,102010.88
2018-12-29T07:28:42.680Z,102008.19
2018-12-29T07:33:38.811Z,102018.55
2018-12-29T07:38:34.712Z,102025.70
2018-12-29T07:43:30.665Z,102029.59
2018-12-29T07:48:26.586Z,102028.34
2018-12-29T07:53:22.492Z,102026.19
2018-12-29T07:58:18.404Z,102019.78
2018-12-29T08:03:14.317Z,102025.60
2018-12-29T08:08:10.228Z,102020.00
2018-12-29T08:13:06.138Z,102027.39
2018-12-29T08:18:02.077Z,102018.98
2018-12-29T08:22:57.988Z,102018.80
2018-12-29T08:27:54.075Z,102015.52
2018-12-29T08:32:50.011Z,102004.37
2018-12-29T08:37:53.588Z,101999.31
2018-12-29T08:42:49.534Z,101998.14
2018-12-29T08:47:45.463Z,101983.69
2018-12-29T08:52:41.395Z,101976.36
2018-12-29T08:57:38.126Z,101975.20
2018-12-29T09:02:36.013Z,101966.11
2018-12-29T09:07:31.955Z,101975.52
2018-12-29T09:12:28.846Z,101975.95
2018-12-29T09:17:24.753Z,101967.88
2018-12-29T09:22:20.684Z,101967.88
2018-12-29T09:27:16.592Z,101969.53
2018-12-29T09:32:32.403Z,101977.36
2018-12-29T09:37:28.336Z,101983.72
2018-12-29T09:42:24.285Z,101969.03
2018-12-29T09:47:20.215Z,101968.23
2018-12-29T09:52:16.110Z,101959.08
2018-12-29T09:57:12.019Z,101951.11
2018-12-29T10:02:07.925Z,101932.74
2018-12-29T10:07:03.989Z,101923.44
2018-12-29T10:11:59.954Z,101910.20
2018-12-29T10:16:55.873Z,101898.75
2018-12-29T10:21:51.835Z,101880.69
2018-12-29T10:32:11.363Z,101860.33
2018-12-29T10:37:07.333Z,101838.69
2018-12-29T10:42:03.455Z,101830.04
2018-12-29T10:46:59.561Z,101807.06
2018-12-29T10:51:55.594Z,101791.18
2018-12-29T10:56:51.565Z,101789.70
2018-12-29T11:01:47.552Z,101794.98
2018-12-29T11:06:43.527Z,101792.76
2018-12-29T11:11:39.729Z,101788.31
2018-12-29T11:17:17.361Z,101782.80
2018-12-29T11:22:13.338Z,101774.15
2018-12-29T11:27:09.261Z,101772.63
2018-12-29T11:32:05.310Z,101765.95
2018-12-29T11:37:01.323Z,101754.69
2018-12-29T11:41:57.303Z,101742.86
2018-12-29T11:46:53.275Z,101730.58
2018-12-29T11:51:49.176Z,101725.29
2018-12-29T11:56:45.098Z,101735.00
2018-12-29T12:01:41.755Z,101738.63
2018-12-29T12:06:37.739Z,101736.45
2018-12-29T12:11:33.704Z,101721.78
2018-12-29T12:16:29.623Z,101696.05
2018-12-29T12:21:25.528Z,101676.82
2018-12-29T12:26:21.647Z,101674.00
2018-12-29T12:31:19.913Z,101707.29
2018-12-29T12:36:15.922Z,101706.19
2018-12-29T12:41:11.891Z,101714.00
2018-12-29T12:46:07.929Z,101708.91
2018-12-29T12:51:03.857Z,101696.09
2018-12-29T12:55:59.774Z,101679.14
2018-12-29T13:01:17.025Z,101695.80
2018-12-29T13:06:13.022Z,101678.55
2018-12-29T13:11:08.933Z,101657.16
2018-12-29T13:16:04.842Z,101658.17
2018-12-29T13:21:00.744Z,101664.91
2018-12-29T13:25:56.734Z,101640.06
2018-12-29T13:31:34.611Z,101609.48
2018-12-29T13:36:30.605Z,101595.08
2018-12-29T13:41:26.525Z,101582.42
2018-12-29T13:46:22.462Z,101582.03
2018-12-29T13:51:18.381Z,101585.58
2018-12-29T13:56:14.293Z,101591.23
2018-12-29T14:01:32.573Z,101575.53
2018-12-29T14:06:28.541Z,101546.17
2018-12-29T14:11:24.485Z,101534.36
2018-12-29T14:16:20.551Z,101542.55
2018-12-29T14:21:16.447Z,101530.81
2018-12-29T14:26:12.488Z,101521.93
2018-12-29T14:31:10.569Z,101500.38
2018-12-29T14:36:06.611Z,101492.75
2018-12-29T14:41:02.505Z,101486.36
2018-12-29T14:45:58.471Z,101468.81
2018-12-29T14:50:54.384Z,101445.70
2018-12-29T14:55:50.288Z,101449.63
2018-12-29T15:00:46.299Z,101446.83
2018-12-29T15:05:42.281Z,101427.98
2018-12-29T15:10:38.204Z,101431.50
2018-12-29T15:15:36.781Z,101420.03
2018-12-29T15:20:33.083Z,101413.47
2018-12-29T15:25:29.201Z,101427.30
2018-12-29T15:30:25.103Z,101481.58
2018-12-29T15:35:21.011Z,101493.12
2018-12-29T15:40:16.999Z,101471.78
2018-12-29T15:45:12.905Z,101438.90
2018-12-29T15:50:22.626Z,101429.41
2018-12-29T15:55:18.934Z,101420.47
2018-12-29T16:00:14.835Z,101405.55
2018-12-29T16:05:10.737Z,101403.13
2018-12-29T16:10:07.054Z,101388.28
2018-12-29T16:15:44.618Z,101369.94
2018-12-29T16:20:40.520Z,101373.58
2018-12-29T16:25:36.423Z,101366.02
2018-12-29T16:30:32.400Z,101363.09
2018-12-29T16:35:28.505Z,101354.77
2018-12-29T16:40:26.301Z,101368.63
2018-12-29T16:45:22.230Z,101353.94
2018-12-29T16:50:18.128Z,101370.94
2018-12-29T16:55:14.030Z,101357.52
2018-12-29T17:00:09.926Z,101356.45
2018-12-29T17:05:05.828Z,101348.64
2018-12-29T17:10:01.729Z,101323.62
2018-12-29T17:14:57.633Z,101321.31
2018-12-29T17:19:53.533Z,101316.09
2018-12-29T17:24:49.430Z,101305.18
2018-12-29T17:29:45.326Z,101290.13
2018-12-29T17:34:41.228Z,101284.41
2018-12-29T17:39:37.124Z,101278.18
2018-12-29T17:44:33.016Z,101275.59
2018-12-29T17:49:28.922Z,101258.58
2018-12-29T17:54:26.715Z,101254.37
2018-12-29T17:59:22.617Z,101250.77
2018-12-29T18:04:20.437Z,101248.67
2018-12-29T18:09:16.346Z,101242.30
2018-12-29T18:14:12.251Z,101241.00
2018-12-29T18:19:08.143Z,101237.59
2018-12-29T18:24:04.048Z,101224.64
2018-12-29T18:28:59.944Z,101228.58
2018-12-29T18:33:55.814Z,101202.11
2018-12-29T18:38:51.715Z,101216.19
2018-12-29T18:43:49.509Z,101211.30
2018-12-29T18:48:45.407Z,101202.45
2018-12-29T18:53:41.307Z,101189.05
2018-12-29T18:58:37.200Z,101185.95
2018-12-29T19:03:33.105Z,101184.63
2018-12-29T19:08:29.398Z,101183.50
2018-12-29T19:13:25.347Z,101165.19
2018-12-29T19:18:23.092Z,101172.08
2018-12-29T19:23:19.003Z,101162.91
2018-12-29T19:28:16.911Z,101154.05
2018-12-29T19:33:12.811Z,101142.94
2018-12-29T19:38:08.761Z,101137.70
2018-12-29T19:43:06.520Z,101137.37
2018-12-29T19:48:22.494Z,101136.39
2018-12-29T19:53:18.674Z,101133.94
2018-12-29T19:58:14.573Z,101150.95
2018-12-29T20:03:11.321Z,101150.79
2018-12-29T20:08:08.335Z,101161.91
2018-12-29T20:13:04.338Z,101141.14
2018-12-29T20:18:00.277Z,101138.66
2018-12-29T20:22:56.238Z,101130.08
2018-12-29T20:27:52.149Z,101133.67
2018-12-29T20:32:48.101Z,101137.45
2018-12-29T20:37:44.012Z,101136.97
2018-12-29T20:43:00.094Z,101138.79
2018-12-29T20:47:56.214Z,101137.93
2018-12-29T20:52:52.328Z,101161.26
2018-12-29T20:57:48.223Z,101160.61
2018-12-29T21:02:44.235Z,101189.77
2018-12-29T21:07:40.330Z,101179.78
2018-12-29T21:12:36.269Z,101190.88
2018-12-29T21:17:32.203Z,101197.92
2018-12-29T21:22:28.290Z,101194.00
2018-12-29T21:27:24.197Z,101195.29
2018-12-29T21:32:20.242Z,101203.48
2018-12-29T21:37:16.209Z,101191.86
2018-12-29T21:42:12.187Z,101192.70
2018-12-29T21:47:08.091Z,101182.55
2018-12-29T21:52:26.833Z,101196.42
2018-12-29T21:57:22.839Z,101191.33
2018-12-29T22:02:18.735Z,101198.17
2018-12-29T22:07:14.693Z,101206.48
2018-12-29T22:12:10.591Z,101203.24
2018-12-29T22:17:06.830Z,101195.73
2018-12-29T22:22:03.242Z,101204.36
2018-12-29T22:26:59.135Z,101192.48
2018-12-29T22:31:55.807Z,101197.72
2018-12-29T22:36:51.733Z,101214.81
2018-12-29T22:41:47.727Z,101210.73
2018-12-29T22:46:43.625Z,101213.20
2018-12-29T22:51:39.523Z,101224.34
2018-12-29T22:56:35.426Z,101205.69
2018-12-29T23:01:32.206Z,101204.38
2018-12-29T23:06:28.149Z,101202.41
2018-12-29T23:11:24.141Z,101205.67
2018-12-29T23:16:20.138Z,101217.27
2018-12-29T23:21:17.953Z,101209.08
2018-12-29T23:26:13.871Z,101218.09
2018-12-29T23:31:51.755Z,101233.78
2018-12-29T23:36:47.706Z,101233.13
2018-12-29T23:41:43.643Z,101228.55
2018-12-29T23:46:39.670Z,101236.57
2018-12-29T23:51:35.687Z,101244.94
2018-12-29T23:56:33.459Z,101263.59
